Time;durP1;ratioP1;P1;durP2;ratioP2;P2;SDS_P1;SDS_P2;PMS_P1;PMS_P2;Temp;Humidity;BMP_temperature;BMP_pressure;BME280_temperature;BME280_humidity;BME280_pressure;Samples;Min_cycle;Max_cycle;Signal;HPM_P1;HPM_P2
2022/07/31 00:01:57;;;;;;;8.93;3.30;;;;;;;;;;5096607;28;20494;-64
2022/07/31 00:04:24;;;;;;;10.47;3.00;;;;;;;;;;5096256;28;20530;-64
2022/07/31 00:06:52;;;;;;;4.83;3.33;;;;;;;;;;5096218;28;20574;-64
2022/07/31 00:09:19;;;;;;;5.47;3.97;;;;;;;;;;5096151;28;20438;-64
2022/07/31 00:11:46;;;;;;;4.60;3.20;;;;;;;;;;5096431;28;20505;-64
2022/07/31 00:14:15;;;;;;;5.03;3.50;;;;;;;;;;5096284;28;21016;-64
2022/07/31 00:16:42;;;;;;;11.03;3.40;;;;;;;;;;5096395;28;20467;-64
2022/07/31 00:19:09;;;;;;;5.87;3.20;;;;;;;;;;5095956;28;20441;-64
2022/07/31 00:21:37;;;;;;;6.53;3.23;;;;;;;;;;5096080;28;20762;-64
2022/07/31 00:24:04;;;;;;;4.17;3.37;;;;;;;;;;5095970;28;20454;-64
2022/07/31 00:26:31;;;;;;;5.07;2.90;;;;;;;;;;5096198;28;20445;-64
2022/07/31 00:28:58;;;;;;;5.80;2.87;;;;;;;;;;5095764;28;20530;-64
2022/07/31 00:31:27;;;;;;;4.60;3.30;;;;;;;;;;5095930;28;20500;-64
2022/07/31 00:33:54;;;;;;;4.73;3.63;;;;;;;;;;5095801;28;20529;-64
2022/07/31 00:36:21;;;;;;;4.03;3.00;;;;;;;;;;5095978;28;20453;-64
2022/07/31 00:38:48;;;;;;;5.50;3.30;;;;;;;;;;5095976;28;20533;-64
2022/07/31 00:41:16;;;;;;;6.00;3.10;;;;;;;;;;5095671;28;20451;-64
2022/07/31 00:43:43;;;;;;;3.50;3.20;;;;;;;;;;5095933;28;20446;-64
2022/07/31 00:46:10;;;;;;;5.80;3.07;;;;;;;;;;5095761;28;20874;-64
2022/07/31 00:48:39;;;;;;;3.20;3.00;;;;;;;;;;5096512;28;20453;-64
2022/07/31 00:51:06;;;;;;;4.13;3.03;;;;;;;;;;5095292;28;20522;-64
2022/07/31 00:53:33;;;;;;;4.30;3.90;;;;;;;;;;5095716;28;20535;-64
2022/07/31 00:56:00;;;;;;;4.53;3.03;;;;;;;;;;5095582;28;20478;-65
2022/07/31 00:58:27;;;;;;;4.83;3.27;;;;;;;;;;5095281;28;20532;-64
2022/07/31 01:00:55;;;;;;;3.33;3.03;;;;;;;;;;5095164;28;20450;-64
2022/07/31 01:03:22;;;;;;;5.93;3.00;;;;;;;;;;5095551;28;20442;-64
2022/07/31 01:05:50;;;;;;;4.60;2.83;;;;;;;;;;5095301;28;20441;-64
2022/07/31 01:08:18;;;;;;;3.20;2.93;;;;;;;;;;5094499;28;20805;-64
2022/07/31 01:10:50;;;;;;;4.00;2.97;;;;;;;;;;5094882;28;20433;-64
2022/07/31 01:13:22;;;;;;;3.57;3.13;;;;;;;;;;5095806;28;20521;-64
2022/07/31 01:15:51;;;;;;;2.90;2.70;;;;;;;;;;5095162;28;20444;-64
2022/07/31 01:18:18;;;;;;;5.20;3.00;;;;;;;;;;5095258;28;20474;-64
2022/07/31 01:20:46;;;;;;;3.90;3.00;;;;;;;;;;5095389;28;20530;-64
2022/07/31 01:23:31;;;;;;;5.00;3.07;;;;;;;;;;5095234;28;20442;-64
2022/07/31 01:26:04;;;;;;;2.90;2.70;;;;;;;;;;5095230;28;20847;-64
2022/07/31 01:28:46;;;;;;;4.50;2.67;;;;;;;;;;5095088;28;20424;-64
2022/07/31 01:31:17;;;;;;;3.20;2.90;;;;;;;;;;5092645;28;21069;-64
2022/07/31 01:33:49;;;;;;;3.50;3.20;;;;;;;;;;5095006;28;20430;-64
2022/07/31 01:36:18;;;;;;;5.57;2.83;;;;;;;;;;5095442;28;20795;-64
2022/07/31 01:38:46;;;;;;;6.33;3.40;;;;;;;;;;5094901;28;20445;-64
2022/07/31 01:41:15;;;;;;;5.43;3.10;;;;;;;;;;5094666;28;20440;-64
2022/07/31 01:43:43;;;;;;;6.50;3.67;;;;;;;;;;5094719;28;20552;-64
2022/07/31 01:46:12;;;;;;;4.27;2.93;;;;;;;;;;5094545;28;20453;-64
2022/07/31 01:48:41;;;;;;;3.47;2.63;;;;;;;;;;5094681;28;20448;-64
2022/07/31 01:51:09;;;;;;;3.63;3.20;;;;;;;;;;5094634;28;20525;-64
2022/07/31 01:53:38;;;;;;;3.67;3.30;;;;;;;;;;5094624;28;20856;-64
2022/07/31 01:56:06;;;;;;;3.07;2.87;;;;;;;;;;5094177;28;20950;-64
2022/07/31 01:58:35;;;;;;;3.67;3.20;;;;;;;;;;5094008;28;20532;-64
2022/07/31 02:01:03;;;;;;;4.47;2.93;;;;;;;;;;5094042;28;20447;-64
2022/07/31 02:03:31;;;;;;;4.50;2.60;;;;;;;;;;5094294;28;20841;-64
2022/07/31 02:06:00;;;;;;;3.30;3.10;;;;;;;;;;5094320;28;20447;-64
2022/07/31 02:08:27;;;;;;;3.97;3.53;;;;;;;;;;5093868;28;20449;-64
2022/07/31 02:10:55;;;;;;;4.03;3.20;;;;;;;;;;5094195;28;20536;-64
2022/07/31 02:13:22;;;;;;;4.50;3.20;;;;;;;;;;5093710;28;20531;-64
2022/07/31 02:15:51;;;;;;;3.67;3.30;;;;;;;;;;5093862;28;20532;-63
2022/07/31 02:18:19;;;;;;;3.63;3.33;;;;;;;;;;5093992;28;20472;-64
2022/07/31 02:20:46;;;;;;;8.20;3.87;;;;;;;;;;5093597;28;20539;-64
2022/07/31 02:23:15;;;;;;;4.73;3.23;;;;;;;;;;5093546;28;20440;-64
2022/07/31 02:25:43;;;;;;;5.03;3.23;;;;;;;;;;5094211;28;20533;-64
2022/07/31 02:28:14;;;;;;;4.07;3.67;;;;;;;;;;5093839;28;20476;-64
2022/07/31 02:30:43;;;;;;;4.17;3.77;;;;;;;;;;5093916;28;20429;-64
2022/07/31 02:33:12;;;;;;;4.33;3.93;;;;;;;;;;5093705;28;20563;-64
2022/07/31 02:35:40;;;;;;;3.67;3.37;;;;;;;;;;5093874;28;20432;-64
2022/07/31 02:38:08;;;;;;;4.73;4.27;;;;;;;;;;5093744;28;20887;-65
2022/07/31 02:40:37;;;;;;;7.17;4.10;;;;;;;;;;5093978;28;20440;-64
2022/07/31 02:43:05;;;;;;;3.70;3.50;;;;;;;;;;5093623;28;20532;-63
2022/07/31 02:45:33;;;;;;;4.97;4.10;;;;;;;;;;5093587;28;20523;-63
2022/07/31 02:48:00;;;;;;;4.10;3.80;;;;;;;;;;5094285;28;20448;-63
2022/07/31 02:50:27;;;;;;;4.40;3.50;;;;;;;;;;5093927;28;20451;-63
2022/07/31 02:52:54;;;;;;;7.87;3.50;;;;;;;;;;5093186;28;21052;-63
2022/07/31 02:55:22;;;;;;;3.60;3.30;;;;;;;;;;5093293;28;20473;-63
2022/07/31 02:57:51;;;;;;;3.87;3.57;;;;;;;;;;5093826;28;20539;-63
2022/07/31 03:00:22;;;;;;;5.57;3.80;;;;;;;;;;5093579;28;20871;-63
2022/07/31 03:02:49;;;;;;;5.83;3.80;;;;;;;;;;5093805;28;20428;-63
2022/07/31 03:05:17;;;;;;;5.70;3.40;;;;;;;;;;5093518;28;20443;-63
2022/07/31 03:07:44;;;;;;;3.80;3.53;;;;;;;;;;5093452;28;20467;-63
2022/07/31 03:10:12;;;;;;;3.90;3.20;;;;;;;;;;5093168;28;20452;-63
2022/07/31 03:12:40;;;;;;;3.77;3.43;;;;;;;;;;5093292;28;20481;-63
2022/07/31 03:15:10;;;;;;;5.40;3.53;;;;;;;;;;5093393;28;20523;-62
2022/07/31 03:17:38;;;;;;;4.57;3.60;;;;;;;;;;5093205;28;20486;-64
2022/07/31 03:20:06;;;;;;;3.93;3.50;;;;;;;;;;5093468;28;20804;-63
2022/07/31 03:22:34;;;;;;;4.13;3.73;;;;;;;;;;5093320;28;20440;-63
2022/07/31 03:25:01;;;;;;;6.40;3.60;;;;;;;;;;5093458;28;20443;-63
2022/07/31 03:27:28;;;;;;;3.57;3.27;;;;;;;;;;5092961;28;20455;-63
2022/07/31 03:29:56;;;;;;;4.17;3.77;;;;;;;;;;5093266;28;20438;-63
2022/07/31 03:32:24;;;;;;;7.33;3.87;;;;;;;;;;5095588;28;20481;-63
2022/07/31 03:34:52;;;;;;;3.80;3.27;;;;;;;;;;5096853;28;20446;-63
2022/07/31 03:37:19;;;;;;;5.53;4.20;;;;;;;;;;5097588;28;20881;-63
2022/07/31 03:39:46;;;;;;;5.70;4.00;;;;;;;;;;5097036;28;20519;-63
2022/07/31 03:42:14;;;;;;;5.20;4.70;;;;;;;;;;5097272;28;20444;-62
2022/07/31 03:44:41;;;;;;;5.13;4.70;;;;;;;;;;5096900;28;20436;-63
2022/07/31 03:47:09;;;;;;;5.70;4.23;;;;;;;;;;5097196;28;20438;-63
2022/07/31 03:49:38;;;;;;;7.40;4.70;;;;;;;;;;5096875;28;20804;-63
2022/07/31 03:52:05;;;;;;;4.33;3.73;;;;;;;;;;5096725;28;21020;-63
2022/07/31 03:54:32;;;;;;;5.73;4.37;;;;;;;;;;5096332;28;20952;-63
2022/07/31 03:57:00;;;;;;;5.57;4.10;;;;;;;;;;5096413;28;20931;-63
2022/07/31 03:59:28;;;;;;;5.20;4.17;;;;;;;;;;5096616;28;20442;-63
2022/07/31 04:01:55;;;;;;;5.07;3.93;;;;;;;;;;5096372;28;20439;-63
2022/07/31 04:04:22;;;;;;;4.50;3.87;;;;;;;;;;5096469;28;20447;-63
2022/07/31 04:06:50;;;;;;;4.67;4.20;;;;;;;;;;5096692;28;20773;-63
2022/07/31 04:09:19;;;;;;;5.73;4.00;;;;;;;;;;5096408;28;20440;-63
2022/07/31 04:11:46;;;;;;;4.73;4.20;;;;;;;;;;5096358;28;20444;-63
2022/07/31 04:14:13;;;;;;;6.63;4.77;;;;;;;;;;5095614;28;20448;-63
2022/07/31 04:16:40;;;;;;;5.50;5.00;;;;;;;;;;5096054;28;20469;-63
2022/07/31 04:19:07;;;;;;;4.77;4.37;;;;;;;;;;5096434;28;20877;-63
2022/07/31 04:21:35;;;;;;;5.60;4.50;;;;;;;;;;5096057;28;20487;-64
2022/07/31 04:24:03;;;;;;;6.83;4.90;;;;;;;;;;5095973;28;20821;-63
2022/07/31 04:26:31;;;;;;;5.63;4.40;;;;;;;;;;5096233;28;20492;-63
2022/07/31 04:28:58;;;;;;;7.30;4.93;;;;;;;;;;5096084;28;20452;-63
2022/07/31 04:31:25;;;;;;;10.53;4.80;;;;;;;;;;5096146;28;20448;-63
2022/07/31 04:33:52;;;;;;;6.00;5.40;;;;;;;;;;5095678;28;20476;-63
2022/07/31 04:36:19;;;;;;;6.17;4.93;;;;;;;;;;5096077;28;20805;-63
2022/07/31 04:38:47;;;;;;;5.90;4.20;;;;;;;;;;5096038;28;20772;-63
2022/07/31 04:41:16;;;;;;;4.67;4.13;;;;;;;;;;5095978;28;20499;-63
2022/07/31 04:43:44;;;;;;;8.40;4.00;;;;;;;;;;5094375;28;20447;-63
2022/07/31 04:46:11;;;;;;;4.90;4.43;;;;;;;;;;5096281;28;20501;-63
2022/07/31 04:48:39;;;;;;;5.60;4.37;;;;;;;;;;5095458;28;20448;-63
2022/07/31 04:51:06;;;;;;;5.30;4.30;;;;;;;;;;5095752;28;20794;-63
2022/07/31 04:53:33;;;;;;;4.67;4.27;;;;;;;;;;5095625;28;20491;-63
2022/07/31 04:58:46;;;;;;;4.10;3.80;;;;;;;;;;5095674;28;20399;-64
2022/07/31 05:01:14;;;;;;;4.50;4.20;;;;;;;;;;5095487;28;20861;-63
2022/07/31 05:03:41;;;;;;;4.80;4.27;;;;;;;;;;5095550;28;20442;-63
2022/07/31 05:06:11;;;;;;;5.57;3.97;;;;;;;;;;5095435;28;20446;-63
2022/07/31 05:08:39;;;;;;;5.03;4.00;;;;;;;;;;5095122;28;20501;-64
2022/07/31 05:11:24;;;;;;;4.53;3.80;;;;;;;;;;5095290;28;20446;-63
2022/07/31 05:13:53;;;;;;;4.50;4.10;;;;;;;;;;5094854;28;20559;-64
2022/07/31 05:16:21;;;;;;;3.77;3.47;;;;;;;;;;5094848;28;20476;-63
2022/07/31 05:18:49;;;;;;;6.37;3.70;;;;;;;;;;5094874;28;20450;-63
2022/07/31 05:21:17;;;;;;;3.97;3.70;;;;;;;;;;5095118;28;20456;-63
2022/07/31 05:23:45;;;;;;;4.43;4.03;;;;;;;;;;5095089;28;20451;-63
2022/07/31 05:26:13;;;;;;;4.53;3.80;;;;;;;;;;5095067;28;20523;-63
2022/07/31 05:28:40;;;;;;;4.63;4.20;;;;;;;;;;5095033;28;20945;-63
2022/07/31 05:31:09;;;;;;;4.90;4.13;;;;;;;;;;5094543;28;20448;-63
2022/07/31 05:33:36;;;;;;;3.90;3.70;;;;;;;;;;5094837;28;20477;-63
2022/07/31 05:36:04;;;;;;;4.50;3.60;;;;;;;;;;5095019;28;20440;-63
2022/07/31 05:38:31;;;;;;;4.37;3.90;;;;;;;;;;5094863;28;20655;-63
2022/07/31 05:40:58;;;;;;;5.40;3.60;;;;;;;;;;5094716;28;20446;-63
2022/07/31 05:43:26;;;;;;;4.10;3.77;;;;;;;;;;5094275;28;20997;-63
2022/07/31 05:45:53;;;;;;;7.33;5.13;;;;;;;;;;5094747;28;20445;-63
2022/07/31 05:48:22;;;;;;;6.27;3.27;;;;;;;;;;5094314;28;21021;-63
2022/07/31 05:50:50;;;;;;;4.80;4.33;;;;;;;;;;5094167;28;20442;-63
2022/07/31 05:53:17;;;;;;;5.90;4.00;;;;;;;;;;5094051;28;21052;-63
2022/07/31 05:55:45;;;;;;;6.00;4.50;;;;;;;;;;5094000;28;20453;-63
2022/07/31 05:58:14;;;;;;;4.80;3.70;;;;;;;;;;5094807;28;20528;-63
2022/07/31 06:00:42;;;;;;;3.43;3.20;;;;;;;;;;5094087;28;20449;-63
2022/07/31 06:03:10;;;;;;;5.93;4.13;;;;;;;;;;5094471;28;20446;-63
2022/07/31 06:05:39;;;;;;;5.10;3.73;;;;;;;;;;5093915;28;20485;-63
2022/07/31 06:08:08;;;;;;;4.83;4.37;;;;;;;;;;5094372;28;20445;-62
2022/07/31 06:10:35;;;;;;;3.50;3.20;;;;;;;;;;5093910;28;20539;-62
2022/07/31 06:13:03;;;;;;;6.90;3.50;;;;;;;;;;5093678;28;20978;-65
2022/07/31 06:15:30;;;;;;;3.60;3.30;;;;;;;;;;5094055;28;20442;-64
2022/07/31 06:17:58;;;;;;;4.37;3.47;;;;;;;;;;5094121;28;20475;-64
2022/07/31 06:20:25;;;;;;;4.60;3.60;;;;;;;;;;5094549;28;20439;-64
2022/07/31 06:22:53;;;;;;;3.27;2.97;;;;;;;;;;5094698;28;20887;-67
2022/07/31 06:25:21;;;;;;;5.80;3.87;;;;;;;;;;5093901;28;20443;-65
2022/07/31 06:27:48;;;;;;;6.40;3.73;;;;;;;;;;5093726;28;20451;-65
2022/07/31 06:30:15;;;;;;;3.50;3.20;;;;;;;;;;5094011;28;20452;-65
2022/07/31 06:32:43;;;;;;;4.23;3.33;;;;;;;;;;5093811;28;20520;-64
2022/07/31 06:35:10;;;;;;;5.90;3.00;;;;;;;;;;5093527;28;20435;-64
2022/07/31 06:37:38;;;;;;;5.40;3.40;;;;;;;;;;5093731;28;20539;-65
2022/07/31 06:40:07;;;;;;;3.60;3.30;;;;;;;;;;5093800;28;20451;-65
2022/07/31 06:42:34;;;;;;;3.40;3.10;;;;;;;;;;5093549;28;20535;-65
2022/07/31 06:45:01;;;;;;;3.97;3.60;;;;;;;;;;5093390;28;20440;-65
2022/07/31 06:47:28;;;;;;;3.90;3.60;;;;;;;;;;5093309;28;20454;-65
2022/07/31 06:49:56;;;;;;;5.77;3.83;;;;;;;;;;5093704;28;20536;-65
2022/07/31 06:52:23;;;;;;;4.93;3.60;;;;;;;;;;5093243;28;20439;-65
2022/07/31 06:54:50;;;;;;;7.70;3.23;;;;;;;;;;5093664;28;20490;-65
2022/07/31 06:57:19;;;;;;;4.50;3.83;;;;;;;;;;5093583;28;21077;-65
2022/07/31 06:59:46;;;;;;;5.13;4.00;;;;;;;;;;5093285;28;20444;-65
2022/07/31 07:02:13;;;;;;;4.90;3.83;;;;;;;;;;5093789;28;20446;-65
2022/07/31 07:04:41;;;;;;;5.23;3.80;;;;;;;;;;5093735;28;20443;-65
2022/07/31 07:07:08;;;;;;;4.53;4.07;;;;;;;;;;5095744;28;20474;-65
2022/07/31 07:09:35;;;;;;;5.63;4.17;;;;;;;;;;5097348;28;20523;-65
2022/07/31 07:12:02;;;;;;;4.33;3.60;;;;;;;;;;5097962;28;20602;-65
2022/07/31 07:14:31;;;;;;;6.40;4.40;;;;;;;;;;5097218;28;20949;-65
2022/07/31 07:16:58;;;;;;;5.67;4.67;;;;;;;;;;5097173;28;20849;-64
2022/07/31 07:19:25;;;;;;;5.73;4.43;;;;;;;;;;5097468;28;20537;-64
2022/07/31 07:21:53;;;;;;;5.43;4.30;;;;;;;;;;5096984;28;20940;-65
2022/07/31 07:24:20;;;;;;;6.80;5.30;;;;;;;;;;5097289;28;20458;-65
2022/07/31 07:26:47;;;;;;;6.50;4.50;;;;;;;;;;5097237;28;20443;-65
2022/07/31 07:29:14;;;;;;;6.10;4.30;;;;;;;;;;5097512;28;20436;-64
2022/07/31 07:31:43;;;;;;;7.20;5.97;;;;;;;;;;5096287;28;20982;-65
2022/07/31 07:34:10;;;;;;;8.53;5.27;;;;;;;;;;5096827;28;20518;-65
2022/07/31 07:36:37;;;;;;;7.67;6.10;;;;;;;;;;5097625;28;20823;-65
2022/07/31 07:39:05;;;;;;;6.10;5.50;;;;;;;;;;5097134;28;20442;-65
2022/07/31 07:41:32;;;;;;;7.53;5.97;;;;;;;;;;5096666;28;20453;-65
2022/07/31 07:43:59;;;;;;;6.00;5.40;;;;;;;;;;5097007;28;20450;-65
2022/07/31 07:46:26;;;;;;;6.70;5.37;;;;;;;;;;5096594;28;20440;-65
2022/07/31 07:48:55;;;;;;;8.40;5.60;;;;;;;;;;5096548;28;20467;-65
2022/07/31 07:51:22;;;;;;;7.33;5.70;;;;;;;;;;5096558;28;20531;-65
2022/07/31 07:53:49;;;;;;;7.43;5.20;;;;;;;;;;5096345;28;21010;-65
2022/07/31 07:56:17;;;;;;;6.63;6.03;;;;;;;;;;5096444;28;20459;-65
2022/07/31 07:58:44;;;;;;;5.50;5.00;;;;;;;;;;5096352;28;20535;-65
2022/07/31 08:01:11;;;;;;;7.57;5.27;;;;;;;;;;5096649;28;20515;-65
2022/07/31 08:03:38;;;;;;;6.00;5.50;;;;;;;;;;5096725;28;20444;-65
2022/07/31 08:06:07;;;;;;;7.23;5.80;;;;;;;;;;5096263;28;20959;-65
2022/07/31 08:08:34;;;;;;;6.80;6.07;;;;;;;;;;5096207;28;20929;-65
2022/07/31 08:11:03;;;;;;;7.50;5.57;;;;;;;;;;5096537;28;20440;-64
2022/07/31 08:13:30;;;;;;;6.30;5.70;;;;;;;;;;5096350;28;20477;-65
2022/07/31 08:15:58;;;;;;;8.13;5.97;;;;;;;;;;5096716;28;20526;-65
2022/07/31 08:18:25;;;;;;;10.67;7.80;;;;;;;;;;5096210;28;20425;-65
2022/07/31 08:20:52;;;;;;;7.70;6.87;;;;;;;;;;5096339;28;20618;-65
2022/07/31 08:23:21;;;;;;;9.30;6.43;;;;;;;;;;5095973;28;20443;-65
2022/07/31 08:25:48;;;;;;;8.30;6.90;;;;;;;;;;5095934;28;20485;-65
2022/07/31 08:28:15;;;;;;;8.83;7.20;;;;;;;;;;5096348;28;20475;-65
2022/07/31 08:30:42;;;;;;;8.47;7.63;;;;;;;;;;5095711;28;20532;-65
2022/07/31 08:33:12;;;;;;;9.60;8.33;;;;;;;;;;5095557;28;20440;-65
2022/07/31 08:35:40;;;;;;;9.33;8.23;;;;;;;;;;5096106;28;20490;-65
2022/07/31 08:38:07;;;;;;;8.63;7.83;;;;;;;;;;5095940;28;20445;-65
2022/07/31 08:40:38;;;;;;;14.20;7.87;;;;;;;;;;5095707;28;20528;-65
2022/07/31 08:43:05;;;;;;;10.10;8.07;;;;;;;;;;5096330;28;20434;-65
2022/07/31 08:45:33;;;;;;;8.47;7.63;;;;;;;;;;5095911;28;20440;-65
2022/07/31 08:48:01;;;;;;;9.20;7.47;;;;;;;;;;5095905;28;20795;-65
2022/07/31 08:50:29;;;;;;;13.93;8.50;;;;;;;;;;5095802;28;20440;-65
2022/07/31 08:52:57;;;;;;;13.07;8.23;;;;;;;;;;5095466;28;20861;-65
2022/07/31 08:55:24;;;;;;;9.20;8.00;;;;;;;;;;5095146;28;20484;-65
2022/07/31 08:57:53;;;;;;;10.97;9.77;;;;;;;;;;5095389;28;20535;-65
2022/07/31 09:00:21;;;;;;;10.00;8.97;;;;;;;;;;5095472;28;20803;-65
2022/07/31 09:02:49;;;;;;;12.07;10.10;;;;;;;;;;5095422;28;20838;-65
2022/07/31 09:05:19;;;;;;;11.93;9.53;;;;;;;;;;5095445;28;20440;-65
2022/07/31 09:07:46;;;;;;;11.83;10.53;;;;;;;;;;5095096;28;20430;-65
2022/07/31 09:10:24;;;;;;;14.80;10.60;;;;;;;;;;5095598;28;20438;-65
2022/07/31 09:12:51;;;;;;;11.20;9.83;;;;;;;;;;5095233;28;20440;-65
2022/07/31 09:15:23;;;;;;;11.27;9.20;;;;;;;;;;5095370;28;20502;-65
2022/07/31 09:17:51;;;;;;;14.43;10.43;;;;;;;;;;5094664;28;20477;-65
2022/07/31 09:20:19;;;;;;;10.73;9.60;;;;;;;;;;5094179;28;20449;-65
2022/07/31 09:22:47;;;;;;;11.03;10.03;;;;;;;;;;5094060;28;20532;-65
2022/07/31 09:25:17;;;;;;;18.23;9.90;;;;;;;;;;5093995;28;20463;-65
2022/07/31 09:27:45;;;;;;;15.70;11.83;;;;;;;;;;5094097;28;20447;-65
2022/07/31 09:30:12;;;;;;;10.97;9.87;;;;;;;;;;5093047;28;20981;-65
2022/07/31 09:32:42;;;;;;;12.80;10.10;;;;;;;;;;5093844;28;20521;-65
2022/07/31 09:35:10;;;;;;;13.07;9.10;;;;;;;;;;5094173;28;20524;-65
2022/07/31 09:37:38;;;;;;;11.87;9.43;;;;;;;;;;5093894;28;20437;-65
2022/07/31 09:40:06;;;;;;;13.80;8.83;;;;;;;;;;5093898;28;20437;-65
2022/07/31 09:42:44;;;;;;;14.87;10.10;;;;;;;;;;5093913;28;20490;-65
2022/07/31 09:45:18;;;;;;;9.83;8.87;;;;;;;;;;5093566;28;20979;-65
2022/07/31 09:47:47;;;;;;;11.23;9.33;;;;;;;;;;5093476;28;20930;-65
2022/07/31 09:50:14;;;;;;;10.63;8.30;;;;;;;;;;5093701;28;20447;-65
2022/07/31 09:52:42;;;;;;;10.83;9.33;;;;;;;;;;5093707;28;20529;-65
2022/07/31 09:55:11;;;;;;;10.53;9.43;;;;;;;;;;5093143;28;20479;-65
2022/07/31 09:57:38;;;;;;;10.40;9.33;;;;;;;;;;5093754;28;20449;-65
2022/07/31 10:00:07;;;;;;;11.90;9.87;;;;;;;;;;5093622;28;20520;-65
2022/07/31 10:02:35;;;;;;;9.20;8.30;;;;;;;;;;5093273;28;20441;-65
2022/07/31 10:05:05;;;;;;;11.23;8.80;;;;;;;;;;5093378;28;20445;-65
2022/07/31 10:07:34;;;;;;;9.50;8.37;;;;;;;;;;5093726;28;20532;-66
2022/07/31 10:10:02;;;;;;;11.40;8.97;;;;;;;;;;5093019;28;20952;-65
2022/07/31 10:12:31;;;;;;;14.20;8.70;;;;;;;;;;5093337;28;20449;-65
2022/07/31 10:15:04;;;;;;;8.27;7.10;;;;;;;;;;5093250;28;20818;-65
2022/07/31 10:17:32;;;;;;;11.33;8.60;;;;;;;;;;5054041;28;1119401;-65
2022/07/31 10:20:03;;;;;;;13.53;9.73;;;;;;;;;;5094027;28;20532;-65
2022/07/31 10:22:32;;;;;;;8.10;7.30;;;;;;;;;;5094644;28;20427;-65
2022/07/31 10:25:01;;;;;;;8.67;6.43;;;;;;;;;;5094066;28;20549;-65
2022/07/31 10:27:29;;;;;;;9.33;8.17;;;;;;;;;;5093709;28;20521;-65
2022/07/31 10:29:56;;;;;;;9.50;7.63;;;;;;;;;;5093922;28;20843;-65
2022/07/31 10:32:24;;;;;;;9.23;8.40;;;;;;;;;;5093896;28;20448;-65
2022/07/31 10:34:51;;;;;;;10.30;7.40;;;;;;;;;;5093930;28;20572;-65
2022/07/31 10:37:21;;;;;;;8.00;6.70;;;;;;;;;;5094083;28;20532;-65
2022/07/31 10:39:57;;;;;;;10.17;7.50;;;;;;;;;;5093487;28;20908;-66
2022/07/31 10:42:30;;;;;;;16.37;7.30;;;;;;;;;;5093989;28;20426;-65
2022/07/31 10:45:03;;;;;;;10.77;7.27;;;;;;;;;;5093681;28;20466;-66
2022/07/31 10:47:31;;;;;;;9.43;7.33;;;;;;;;;;5094074;28;20435;-66
2022/07/31 10:49:58;;;;;;;9.27;7.20;;;;;;;;;;5093814;28;20438;-65
2022/07/31 10:52:29;;;;;;;13.23;6.30;;;;;;;;;;5093667;28;20855;-65
2022/07/31 10:55:00;;;;;;;10.70;6.77;;;;;;;;;;5093694;28;20485;-65
2022/07/31 10:57:28;;;;;;;7.80;6.70;;;;;;;;;;5093788;28;20431;-65
2022/07/31 10:59:55;;;;;;;11.40;6.60;;;;;;;;;;5093518;28;20453;-65
2022/07/31 11:02:29;;;;;;;6.90;5.97;;;;;;;;;;5093564;28;20442;-65
2022/07/31 11:05:06;;;;;;;6.97;5.40;;;;;;;;;;5093126;28;20439;-65
2022/07/31 11:07:34;;;;;;;5.77;5.30;;;;;;;;;;5093247;28;20430;-65
2022/07/31 11:10:10;;;;;;;6.80;5.00;;;;;;;;;;5093385;28;20830;-65
2022/07/31 11:12:37;;;;;;;6.00;4.50;;;;;;;;;;5093981;28;20514;-65
2022/07/31 11:15:05;;;;;;;5.80;4.63;;;;;;;;;;5092376;28;20486;-65
2022/07/31 11:17:35;;;;;;;5.93;5.10;;;;;;;;;;5093616;28;20805;-65
2022/07/31 11:20:02;;;;;;;5.73;5.23;;;;;;;;;;5093522;28;20438;-65
2022/07/31 11:22:29;;;;;;;5.87;5.30;;;;;;;;;;5092981;28;20445;-65
2022/07/31 11:24:57;;;;;;;6.13;5.50;;;;;;;;;;5092771;28;20446;-65
2022/07/31 11:27:31;;;;;;;5.00;4.57;;;;;;;;;;5093425;28;20518;-65
2022/07/31 11:30:04;;;;;;;4.80;4.33;;;;;;;;;;5093700;28;20434;-65
2022/07/31 11:32:31;;;;;;;5.40;4.87;;;;;;;;;;5093397;28;20509;-65
2022/07/31 11:34:58;;;;;;;5.83;5.00;;;;;;;;;;5093664;28;20478;-65
2022/07/31 11:37:27;;;;;;;5.30;4.47;;;;;;;;;;5092922;28;20535;-65
2022/07/31 11:39:55;;;;;;;8.93;4.40;;;;;;;;;;5093140;28;20921;-65
2022/07/31 11:42:23;;;;;;;5.50;5.00;;;;;;;;;;5093404;28;20438;-65
2022/07/31 11:44:53;;;;;;;5.67;5.10;;;;;;;;;;5092997;28;20795;-65
2022/07/31 11:47:20;;;;;;;8.47;5.93;;;;;;;;;;5093170;28;20440;-65
2022/07/31 11:49:47;;;;;;;5.60;5.07;;;;;;;;;;5092954;28;20974;-65
2022/07/31 11:52:15;;;;;;;5.50;5.00;;;;;;;;;;5093649;28;20534;-66
2022/07/31 11:54:42;;;;;;;6.10;5.60;;;;;;;;;;5096351;28;20486;-65
2022/07/31 11:57:09;;;;;;;5.30;4.63;;;;;;;;;;5096933;28;20445;-65
2022/07/31 11:59:37;;;;;;;5.70;5.30;;;;;;;;;;5096794;28;20435;-65
2022/07/31 12:02:07;;;;;;;7.33;6.10;;;;;;;;;;5096423;28;20932;-66
2022/07/31 12:04:36;;;;;;;7.30;6.70;;;;;;;;;;5096358;28;20442;-65
2022/07/31 12:07:03;;;;;;;7.20;6.57;;;;;;;;;;5096659;28;20497;-65
2022/07/31 12:09:31;;;;;;;7.30;6.60;;;;;;;;;;5096624;28;20549;-65
2022/07/31 12:11:59;;;;;;;6.90;6.30;;;;;;;;;;5096173;28;20447;-65
2022/07/31 12:14:31;;;;;;;7.20;6.67;;;;;;;;;;5096073;28;20932;-65
2022/07/31 12:16:58;;;;;;;8.53;7.27;;;;;;;;;;5096087;28;20501;-66
2022/07/31 12:19:28;;;;;;;8.73;7.93;;;;;;;;;;5096670;28;20449;-65
2022/07/31 12:21:55;;;;;;;8.77;8.07;;;;;;;;;;5095965;28;20926;-66
2022/07/31 12:24:22;;;;;;;8.83;8.10;;;;;;;;;;5096274;28;20548;-66
2022/07/31 12:26:51;;;;;;;7.90;7.20;;;;;;;;;;5096180;28;20438;-66
2022/07/31 12:29:18;;;;;;;8.97;8.07;;;;;;;;;;5096201;28;20436;-65
2022/07/31 12:31:46;;;;;;;9.30;8.40;;;;;;;;;;5096131;28;20534;-66
2022/07/31 12:34:13;;;;;;;7.90;7.30;;;;;;;;;;5095696;28;20436;-65
2022/07/31 12:36:42;;;;;;;9.60;8.80;;;;;;;;;;5096038;28;20483;-66
2022/07/31 12:39:12;;;;;;;9.13;8.23;;;;;;;;;;5096159;28;20445;-65
2022/07/31 12:41:43;;;;;;;9.47;8.57;;;;;;;;;;5095967;28;20446;-66
2022/07/31 12:44:10;;;;;;;9.23;8.43;;;;;;;;;;5095888;28;20444;-65
2022/07/31 12:46:37;;;;;;;10.10;8.87;;;;;;;;;;5095694;28;20539;-65
2022/07/31 12:49:05;;;;;;;8.87;7.97;;;;;;;;;;5095477;28;20481;-65
2022/07/31 12:51:32;;;;;;;9.40;8.50;;;;;;;;;;5095654;28;20443;-65
2022/07/31 12:54:03;;;;;;;9.20;8.23;;;;;;;;;;5095830;28;20440;-65
2022/07/31 12:56:30;;;;;;;8.57;7.87;;;;;;;;;;5095687;28;20472;-65
2022/07/31 12:58:57;;;;;;;8.50;7.70;;;;;;;;;;5095757;28;20437;-65
2022/07/31 13:01:25;;;;;;;8.00;7.20;;;;;;;;;;5095694;28;20451;-66
2022/07/31 13:03:52;;;;;;;8.40;7.60;;;;;;;;;;5094077;28;20923;-65
2022/07/31 13:06:19;;;;;;;7.03;6.53;;;;;;;;;;5095448;28;20442;-66
2022/07/31 13:08:46;;;;;;;9.50;7.30;;;;;;;;;;5095593;28;20446;-65
2022/07/31 13:11:15;;;;;;;8.10;7.27;;;;;;;;;;5095243;28;20443;-66
2022/07/31 13:13:42;;;;;;;7.90;6.53;;;;;;;;;;5095333;28;20802;-66
2022/07/31 13:16:09;;;;;;;8.00;7.07;;;;;;;;;;5094972;28;20581;-66
2022/07/31 13:18:37;;;;;;;6.60;5.90;;;;;;;;;;5095013;28;20958;-66
2022/07/31 13:21:04;;;;;;;8.40;5.97;;;;;;;;;;5095558;28;20935;-66
2022/07/31 13:23:31;;;;;;;6.70;5.40;;;;;;;;;;5094960;28;20461;-65
2022/07/31 13:26:00;;;;;;;5.07;4.57;;;;;;;;;;5094687;28;20450;-66
2022/07/31 13:28:28;;;;;;;5.30;4.90;;;;;;;;;;5094782;28;20499;-65
2022/07/31 13:30:55;;;;;;;5.20;4.70;;;;;;;;;;5094610;28;20481;-65
2022/07/31 13:33:22;;;;;;;5.80;4.60;;;;;;;;;;5094857;28;21017;-65
2022/07/31 13:35:50;;;;;;;6.70;4.20;;;;;;;;;;5095014;28;20484;-65
2022/07/31 13:38:17;;;;;;;4.90;4.50;;;;;;;;;;5094854;28;20447;-65
2022/07/31 13:43:30;;;;;;;5.27;4.77;;;;;;;;;;5094658;28;20774;-65
2022/07/31 13:45:57;;;;;;;4.10;3.80;;;;;;;;;;5094905;28;20472;-65
2022/07/31 13:48:25;;;;;;;5.90;4.47;;;;;;;;;;5094294;28;20950;-65
2022/07/31 13:50:52;;;;;;;4.10;3.70;;;;;;;;;;5094867;28;20469;-66
2022/07/31 13:53:19;;;;;;;4.70;3.93;;;;;;;;;;5094357;28;20493;-65
2022/07/31 13:55:46;;;;;;;4.40;4.00;;;;;;;;;;5094149;28;21046;-66
2022/07/31 13:58:14;;;;;;;5.37;4.23;;;;;;;;;;5094031;28;20447;-65
2022/07/31 14:00:42;;;;;;;4.50;4.13;;;;;;;;;;5094469;28;20442;-65
2022/07/31 14:03:10;;;;;;;5.70;4.10;;;;;;;;;;5094268;28;20433;-65
2022/07/31 14:05:38;;;;;;;4.07;3.77;;;;;;;;;;5093921;28;20934;-65
2022/07/31 14:08:05;;;;;;;4.53;4.23;;;;;;;;;;5093915;28;20452;-66
2022/07/31 14:10:33;;;;;;;5.73;4.20;;;;;;;;;;5094447;28;20847;-65
2022/07/31 14:13:00;;;;;;;4.60;4.20;;;;;;;;;;5094131;28;20479;-65
2022/07/31 14:15:27;;;;;;;5.73;4.83;;;;;;;;;;5093671;28;20628;-65
2022/07/31 14:17:57;;;;;;;5.43;4.93;;;;;;;;;;5094430;28;20473;-65
2022/07/31 14:20:24;;;;;;;6.10;5.57;;;;;;;;;;5093751;28;20444;-65
2022/07/31 14:22:51;;;;;;;7.50;4.83;;;;;;;;;;5094116;28;20439;-65
2022/07/31 14:25:18;;;;;;;5.17;4.77;;;;;;;;;;5093727;28;20457;-65
2022/07/31 14:27:46;;;;;;;6.53;5.07;;;;;;;;;;5093931;28;20543;-66
2022/07/31 14:30:14;;;;;;;7.90;4.77;;;;;;;;;;5093630;28;20456;-65
2022/07/31 14:32:41;;;;;;;5.23;4.73;;;;;;;;;;5094019;28;20435;-65
2022/07/31 14:35:10;;;;;;;5.00;4.53;;;;;;;;;;5093765;28;20530;-65
2022/07/31 14:37:38;;;;;;;5.50;3.67;;;;;;;;;;5093432;28;20926;-65
2022/07/31 14:40:06;;;;;;;7.23;4.47;;;;;;;;;;5093535;28;20501;-65
2022/07/31 14:42:33;;;;;;;5.43;4.60;;;;;;;;;;5093355;28;20439;-65
2022/07/31 14:45:01;;;;;;;6.50;4.90;;;;;;;;;;5093649;28;20519;-66
2022/07/31 14:47:29;;;;;;;5.30;4.50;;;;;;;;;;5093634;28;20479;-66
2022/07/31 14:49:56;;;;;;;6.80;4.53;;;;;;;;;;5093650;28;20446;-65
2022/07/31 14:52:24;;;;;;;11.10;3.90;;;;;;;;;;5094049;28;20471;-66